createdAt,value
2023-02-02T00:01:30.197Z,102144.28
2023-02-02T00:04:03.112Z,102144.44
2023-02-02T00:06:37.016Z,102138.19
2023-02-02T00:09:12.047Z,102144.13
2023-02-02T00:11:46.344Z,102144.75
2023-02-02T00:14:19.901Z,102132.50
2023-02-02T00:16:53.755Z,102145.72
2023-02-02T00:19:28.293Z,102143.78
2023-02-02T00:22:02.387Z,102142.66
2023-02-02T00:24:35.061Z,102146.06
2023-02-02T00:27:07.733Z,102140.56
2023-02-02T00:29:40.855Z,102139.91
2023-02-02T00:32:13.418Z,102148.91
2023-02-02T00:34:46.405Z,102150.22
2023-02-02T00:37:20.451Z,102155.50
2023-02-02T00:39:53.206Z,102141.84
2023-02-02T00:42:25.941Z,102161.94
2023-02-02T00:45:16.152Z,102147.63
2023-02-02T00:47:50.541Z,102157.94
2023-02-02T00:50:23.955Z,102152.31
2023-02-02T00:52:58.941Z,102145.69
2023-02-02T00:55:32.122Z,102147.94
2023-02-02T00:58:04.864Z,102147.00
2023-02-02T01:00:37.812Z,102141.72
2023-02-02T01:03:11.737Z,102152.47
2023-02-02T01:05:44.523Z,102153.44
2023-02-02T01:08:18.633Z,102152.16
2023-02-02T01:10:51.332Z,102155.69
2023-02-02T01:13:24.027Z,102137.19
2023-02-02T01:15:57.316Z,102142.00
2023-02-02T01:18:32.674Z,102138.16
2023-02-02T01:21:08.000Z,102137.19
2023-02-02T01:23:42.804Z,102139.88
2023-02-02T01:26:16.791Z,102132.69
2023-02-02T01:28:50.241Z,102123.97
2023-02-02T01:31:23.208Z,102128.81
2023-02-02T01:33:55.762Z,102144.75
2023-02-02T01:36:28.549Z,102132.03
2023-02-02T01:39:02.739Z,102135.56
2023-02-02T01:41:35.887Z,102146.50
2023-02-02T01:44:53.524Z,102146.38
2023-02-02T01:47:30.385Z,102146.38
2023-02-02T01:50:04.335Z,102146.84
2023-02-02T01:52:38.815Z,102145.72
2023-02-02T01:55:15.626Z,102154.25
2023-02-02T01:57:53.206Z,102140.91
2023-02-02T02:00:27.832Z,102150.03
2023-02-02T02:03:06.005Z,102146.38
2023-02-02T02:05:47.365Z,102157.63
2023-02-02T02:08:24.624Z,102162.59
2023-02-02T02:10:59.270Z,102161.31
2023-02-02T02:13:51.027Z,102165.31
2023-02-02T02:16:33.467Z,102162.25
2023-02-02T02:19:24.587Z,102147.00
2023-02-02T02:22:21.212Z,102149.41
2023-02-02T02:25:56.485Z,102144.41
2023-02-02T02:28:54.850Z,102136.69
2023-02-02T02:31:52.562Z,102130.44
2023-02-02T02:34:37.099Z,102139.13
2023-02-02T02:37:17.445Z,102142.50
2023-02-02T02:39:54.774Z,102125.09
2023-02-02T02:42:31.943Z,102145.72
2023-02-02T02:45:06.989Z,102135.56
2023-02-02T02:47:42.514Z,102150.03
2023-02-02T02:50:15.247Z,102145.72
2023-02-02T02:52:50.491Z,102148.13
2023-02-02T02:55:25.737Z,102146.22
2023-02-02T02:58:08.109Z,102143.63
2023-02-02T03:00:49.443Z,102131.06
2023-02-02T03:03:37.313Z,102133.19
2023-02-02T03:06:17.446Z,102122.53
2023-02-02T03:08:55.239Z,102132.69
2023-02-02T03:11:27.962Z,102130.47
2023-02-02T03:14:03.014Z,102129.13
2023-02-02T03:16:35.857Z,102137.66
2023-02-02T03:19:10.529Z,102128.66
2023-02-02T03:21:43.337Z,102142.50
2023-02-02T03:24:16.064Z,102128.53
2023-02-02T03:26:48.840Z,102133.31
2023-02-02T03:29:21.695Z,102136.56
2023-02-02T03:31:54.558Z,102150.41
2023-02-02T03:34:29.083Z,102153.28
2023-02-02T03:37:01.915Z,102156.00
2023-02-02T03:39:34.584Z,102150.72
2023-02-02T03:42:07.639Z,102150.88
2023-02-02T03:44:40.292Z,102153.44
2023-02-02T03:47:13.025Z,102164.22
2023-02-02T03:49:47.163Z,102173.41
2023-02-02T03:52:20.084Z,102168.06
2023-02-02T03:54:53.087Z,102175.31
2023-02-02T03:57:25.783Z,102178.88
2023-02-02T03:59:59.242Z,102182.38
2023-02-02T04:02:32.114Z,102168.56
2023-02-02T04:05:08.941Z,102171.59
2023-02-02T04:07:41.860Z,102180.78
2023-02-02T04:10:14.588Z,102171.28
2023-02-02T04:12:47.770Z,102190.59
2023-02-02T04:15:20.428Z,102175.63
2023-02-02T04:17:53.090Z,102177.56
2023-02-02T04:20:27.200Z,102172.25
2023-02-02T04:22:59.995Z,102175.00
2023-02-02T04:25:32.837Z,102179.19
2023-02-02T04:28:05.997Z,102175.16
2023-02-02T04:30:38.823Z,102180.78
2023-02-02T04:33:11.585Z,102179.81
2023-02-02T04:35:46.127Z,102181.72
2023-02-02T04:38:18.790Z,102179.50
2023-02-02T04:40:51.872Z,102197.81
2023-02-02T04:43:24.749Z,102191.72
2023-02-02T04:45:57.776Z,102198.31
2023-02-02T04:48:31.210Z,102190.25
2023-02-02T04:51:07.549Z,102192.34
2023-02-02T04:53:41.159Z,102199.44
2023-02-02T04:56:17.210Z,102193.16
2023-02-02T04:58:49.861Z,102191.25
2023-02-02T05:01:23.600Z,102176.44
2023-02-02T05:03:56.425Z,102177.56
2023-02-02T05:06:30.432Z,102188.69
2023-02-02T05:09:03.167Z,102179.50
2023-02-02T05:11:36.531Z,102189.78
2023-02-02T05:14:09.729Z,102188.00
2023-02-02T05:16:42.835Z,102184.78
2023-02-02T05:19:16.878Z,102183.53
2023-02-02T05:21:51.445Z,102196.88
2023-02-02T05:24:26.004Z,102175.31
2023-02-02T05:27:00.649Z,102188.66
2023-02-02T05:29:33.424Z,102194.63
2023-02-02T05:32:06.413Z,102189.81
2023-02-02T05:34:39.524Z,102184.31
2023-02-02T05:37:13.597Z,102188.19
2023-02-02T05:39:46.284Z,102189.00
2023-02-02T05:42:19.006Z,102193.31
2023-02-02T05:44:51.730Z,102191.88
2023-02-02T05:47:24.546Z,102188.34
2023-02-02T05:49:57.764Z,102195.09
2023-02-02T05:52:35.819Z,102200.75
2023-02-02T05:55:09.742Z,102199.94
2023-02-02T05:57:42.434Z,102198.47
2023-02-02T06:00:15.881Z,102197.19
2023-02-02T06:02:49.612Z,102197.69
2023-02-02T06:05:22.711Z,102204.75
2023-02-02T06:07:57.152Z,102206.50
2023-02-02T06:10:31.439Z,102211.50
2023-02-02T06:13:04.253Z,102210.69
2023-02-02T06:15:37.843Z,102218.25
2023-02-02T06:18:11.405Z,102220.81
2023-02-02T06:20:44.155Z,102216.16
2023-02-02T06:23:18.155Z,102218.41
2023-02-02T06:25:50.938Z,102225.00
2023-02-02T06:28:23.710Z,102238.22
2023-02-02T06:30:56.455Z,102238.34
2023-02-02T06:33:29.285Z,102252.50
2023-02-02T06:36:02.696Z,102253.00
2023-02-02T06:38:36.787Z,102252.03
2023-02-02T06:41:09.511Z,102244.94
2023-02-02T06:43:42.184Z,102245.13
2023-02-02T06:46:14.960Z,102246.56
2023-02-02T06:48:47.740Z,102239.34
2023-02-02T06:51:20.740Z,102237.06
2023-02-02T06:53:56.470Z,102234.66
2023-02-02T06:56:31.227Z,102235.47
2023-02-02T06:59:04.412Z,102225.47
2023-02-02T07:01:37.473Z,102226.94
2023-02-02T07:04:10.522Z,102237.25
2023-02-02T07:06:43.414Z,102239.16
2023-02-02T07:09:17.940Z,102245.28
2023-02-02T07:11:50.780Z,102253.94
2023-02-02T07:14:23.679Z,102236.59
2023-02-02T07:16:56.351Z,102250.41
2023-02-02T07:19:29.274Z,102250.25
2023-02-02T07:22:02.018Z,102255.72
2023-02-02T07:24:38.108Z,102267.44
2023-02-02T07:27:10.979Z,102261.38
2023-02-02T07:29:43.705Z,102269.56
2023-02-02T07:32:16.480Z,102276.63
2023-02-02T07:34:49.190Z,102271.50
2023-02-02T07:37:22.005Z,102289.00
2023-02-02T07:39:58.768Z,102294.31
2023-02-02T07:42:31.570Z,102302.84
2023-02-02T07:45:27.520Z,102295.44
2023-02-02T07:47:59.146Z,102300.72
2023-02-02T07:50:32.313Z,102308.59
2023-02-02T07:53:05.200Z,102303.16
2023-02-02T07:55:39.444Z,102307.19
2023-02-02T07:58:12.175Z,102315.53
2023-02-02T08:00:45.470Z,102310.72
2023-02-02T08:03:18.198Z,102305.72
2023-02-02T08:05:51.150Z,102304.44
2023-02-02T08:08:24.097Z,102299.44
2023-02-02T08:10:58.445Z,102305.09
2023-02-02T08:13:31.159Z,102306.56
2023-02-02T08:16:04.081Z,102309.13
2023-02-02T08:18:36.977Z,102316.03
2023-02-02T08:21:11.488Z,102317.00
2023-02-02T08:23:45.553Z,102325.53
2023-02-02T08:26:22.224Z,102329.38
2023-02-02T08:28:58.483Z,102328.44
2023-02-02T08:31:32.841Z,102330.50
2023-02-02T08:34:06.547Z,102334.56
2023-02-02T08:36:39.427Z,102342.09
2023-02-02T08:39:14.315Z,102340.03
2023-02-02T08:41:48.362Z,102336.16
2023-02-02T08:44:21.063Z,102340.03
2023-02-02T08:46:56.515Z,102337.13
2023-02-02T08:49:29.217Z,102339.03
2023-02-02T08:52:02.288Z,102334.72
2023-02-02T08:54:35.582Z,102336.16
2023-02-02T08:57:09.600Z,102342.91
2023-02-02T08:59:42.267Z,102352.72
2023-02-02T09:02:15.148Z,102355.66
2023-02-02T09:04:48.615Z,102355.19
2023-02-02T09:07:21.373Z,102366.75
2023-02-02T09:09:55.753Z,102365.47
2023-02-02T09:12:29.832Z,102371.28
2023-02-02T09:15:03.321Z,102374.19
2023-02-02T09:17:36.541Z,102376.09
2023-02-02T09:20:10.010Z,102373.34
2023-02-02T09:22:44.875Z,102369.66
2023-02-02T09:25:17.676Z,102366.13
2023-02-02T09:27:51.981Z,102370.94
2023-02-02T09:30:24.890Z,102382.53
2023-02-02T09:32:57.452Z,102387.69
2023-02-02T09:35:30.117Z,102381.88
2023-02-02T09:38:03.000Z,102372.88
2023-02-02T09:40:36.395Z,102392.81
2023-02-02T09:43:26.583Z,102383.16
2023-02-02T09:46:06.771Z,102384.94
2023-02-02T09:48:49.721Z,102372.69
2023-02-02T09:51:27.171Z,102382.34
2023-02-02T09:54:06.126Z,102380.88
2023-02-02T09:56:43.218Z,102382.03
2023-02-02T09:59:24.485Z,102383.97
2023-02-02T10:02:03.564Z,102388.78
2023-02-02T10:04:38.023Z,102386.03
2023-02-02T10:07:18.454Z,102394.59
2023-02-02T10:09:59.982Z,102393.09
2023-02-02T10:12:41.404Z,102377.97
2023-02-02T10:15:20.759Z,102391.16
2023-02-02T10:17:58.563Z,102392.09
2023-02-02T10:20:40.398Z,102393.91
2023-02-02T10:23:22.585Z,102391.28
2023-02-02T10:26:05.443Z,102386.91
2023-02-02T10:28:45.434Z,102393.06
2023-02-02T10:31:37.633Z,102407.19
2023-02-02T10:34:17.884Z,102403.66
2023-02-02T10:37:21.393Z,102420.75
2023-02-02T10:40:10.044Z,102411.50
2023-02-02T10:43:09.236Z,102427.16
2023-02-02T10:45:44.908Z,102427.25
2023-02-02T10:48:23.245Z,102431.75
2023-02-02T10:51:00.643Z,102432.69
2023-02-02T10:53:34.416Z,102431.81
2023-02-02T10:56:11.746Z,102424.06
2023-02-02T10:58:51.657Z,102418.88
2023-02-02T11:01:24.507Z,102415.47
2023-02-02T11:04:16.492Z,102420.06
2023-02-02T11:06:52.327Z,102422.38
2023-02-02T11:09:28.541Z,102421.72
2023-02-02T11:12:07.883Z,102423.75
2023-02-02T11:14:46.327Z,102424.09
2023-02-02T11:17:22.218Z,102423.41
2023-02-02T11:19:56.795Z,102414.72
2023-02-02T11:22:34.101Z,102413.22
2023-02-02T11:25:23.367Z,102417.59
2023-02-02T11:27:56.317Z,102423.69
2023-02-02T11:30:34.566Z,102434.16
2023-02-02T11:33:22.857Z,102418.88
2023-02-02T11:35:58.839Z,102418.09
2023-02-02T11:38:32.381Z,102421.47
2023-02-02T11:41:09.186Z,102412.47
2023-02-02T11:43:51.070Z,102417.63
2023-02-02T11:46:29.301Z,102423.59
2023-02-02T11:49:05.354Z,102423.59
2023-02-02T11:51:39.537Z,102430.03
2023-02-02T11:54:19.205Z,102430.88
2023-02-02T11:56:55.093Z,102434.91
2023-02-02T11:59:33.978Z,102425.72
2023-02-02T12:02:23.613Z,102418.97
2023-02-02T12:05:14.998Z,102416.88
2023-02-02T12:07:50.161Z,102418.13
2023-02-02T12:10:32.833Z,102421.72
2023-02-02T12:13:10.883Z,102418.97
2023-02-02T12:15:51.898Z,102422.81
2023-02-02T12:18:42.008Z,102423.78
2023-02-02T12:21:22.730Z,102420.19
2023-02-02T12:24:15.438Z,102417.44
2023-02-02T12:26:56.730Z,102423.78
2023-02-02T12:29:50.428Z,102423.31
2023-02-02T12:32:33.923Z,102418.47
2023-02-02T12:35:28.931Z,102422.97
2023-02-02T12:38:12.044Z,102430.72
2023-02-02T12:41:14.988Z,102429.94
2023-02-02T12:43:51.995Z,102431.28
2023-02-02T12:46:41.287Z,102421.25
2023-02-02T12:49:39.718Z,102422.09
2023-02-02T12:52:26.878Z,102412.91
2023-02-02T12:55:16.043Z,102402.56
2023-02-02T12:57:56.980Z,102409.53
2023-02-02T13:00:46.293Z,102404.50
2023-02-02T13:03:40.844Z,102404.69
2023-02-02T13:06:54.255Z,102406.03
2023-02-02T13:09:31.287Z,102397.19
2023-02-02T13:12:09.365Z,102401.19
2023-02-02T13:14:47.680Z,102397.97
2023-02-02T13:17:26.648Z,102407.00
2023-02-02T13:20:04.436Z,102397.00
2023-02-02T13:22:42.061Z,102388.31
2023-02-02T13:25:20.275Z,102398.31
2023-02-02T13:27:54.631Z,102401.69
2023-02-02T13:30:34.126Z,102399.63
2023-02-02T13:33:14.594Z,102397.59
2023-02-02T13:35:52.672Z,102404.25
2023-02-02T13:38:27.484Z,102412.66
2023-02-02T13:41:03.306Z,102406.69
2023-02-02T13:43:43.994Z,102401.59
2023-02-02T13:46:27.029Z,102404.47
2023-02-02T13:49:08.436Z,102401.56
2023-02-02T13:51:54.773Z,102400.91
2023-02-02T13:55:19.354Z,102396.88
2023-02-02T13:58:17.210Z,102398.19
2023-02-02T14:00:52.933Z,102409.31
2023-02-02T14:03:38.833Z,102407.53
2023-02-02T14:06:15.612Z,102405.44
2023-02-02T14:08:55.095Z,102407.50
2023-02-02T14:11:31.845Z,102419.91
2023-02-02T14:14:32.676Z,102410.25
2023-02-02T14:17:08.568Z,102421.38
2023-02-02T14:19:59.409Z,102400.25
2023-02-02T14:22:47.833Z,102421.72
2023-02-02T14:25:53.289Z,102414.25
2023-02-02T14:28:44.706Z,102426.84
2023-02-02T14:31:28.396Z,102416.81
2023-02-02T14:34:34.820Z,102417.81
2023-02-02T14:37:29.667Z,102411.03
2023-02-02T14:40:21.863Z,102425.22
2023-02-02T14:43:24.874Z,102421.84
2023-02-02T14:46:34.651Z,102429.91
2023-02-02T14:49:17.934Z,102434.25
2023-02-02T14:52:02.208Z,102433.75
2023-02-02T14:54:40.919Z,102422.47
2023-02-02T14:57:25.324Z,102430.38
2023-02-02T15:00:01.297Z,102425.22
2023-02-02T15:02:39.249Z,102421.66
2023-02-02T15:05:39.109Z,102425.22
2023-02-02T15:08:26.770Z,102428.25
2023-02-02T15:11:32.376Z,102424.88
2023-02-02T15:14:14.743Z,102420.03
2023-02-02T15:16:48.573Z,102429.69
2023-02-02T15:19:32.309Z,102418.44
2023-02-02T15:22:31.599Z,102432.81
2023-02-02T15:25:13.582Z,102426.84
2023-02-02T15:27:56.950Z,102433.56
2023-02-02T15:30:35.523Z,102430.19
2023-02-02T15:33:21.797Z,102427.78
2023-02-02T15:35:55.700Z,102436.19
2023-02-02T15:38:35.122Z,102430.56
2023-02-02T15:41:17.034Z,102446.19
2023-02-02T15:43:57.989Z,102449.09
2023-02-02T15:46:44.551Z,102446.53
2023-02-02T15:49:45.939Z,102443.31
2023-02-02T15:52:33.208Z,102445.75
2023-02-02T15:55:31.693Z,102441.72
2023-02-02T15:58:27.699Z,102451.53
2023-02-02T16:01:04.752Z,102446.06
2023-02-02T16:03:48.063Z,102451.06
2023-02-02T16:06:28.129Z,102458.81
2023-02-02T16:09:03.497Z,102458.66
2023-02-02T16:11:48.611Z,102460.59
2023-02-02T16:14:21.905Z,102461.38
2023-02-02T16:16:57.062Z,102469.28
2023-02-02T16:19:30.260Z,102470.41
2023-02-02T16:22:16.551Z,102468.50
2023-02-02T16:24:56.274Z,102473.50
2023-02-02T16:27:49.566Z,102472.00
2023-02-02T16:30:29.133Z,102468.66
2023-02-02T16:33:40.892Z,102477.50
2023-02-02T16:36:26.225Z,102475.75
2023-02-02T16:39:09.252Z,102470.59
2023-02-02T16:41:47.340Z,102476.06
2023-02-02T16:44:40.818Z,102473.97
2023-02-02T16:47:43.311Z,102466.72
2023-02-02T16:50:29.611Z,102477.19
2023-02-02T16:53:04.467Z,102473.97
2023-02-02T16:55:50.047Z,102480.09
2023-02-02T16:58:25.298Z,102475.91
2023-02-02T17:01:15.040Z,102475.91
2023-02-02T17:03:53.976Z,102477.84
2023-02-02T17:06:42.145Z,102476.22
2023-02-02T17:09:34.525Z,102481.72
2023-02-02T17:12:34.193Z,102486.72
2023-02-02T17:15:29.125Z,102476.22
2023-02-02T17:18:06.067Z,102488.16
2023-02-02T17:20:42.133Z,102482.66
2023-02-02T17:23:19.620Z,102474.78
2023-02-02T17:25:54.091Z,102483.66
2023-02-02T17:28:29.644Z,102480.91
2023-02-02T17:31:06.813Z,102483.16
2023-02-02T17:33:40.421Z,102485.88
2023-02-02T17:36:14.143Z,102488.16
2023-02-02T17:38:48.649Z,102495.41
2023-02-02T17:41:21.507Z,102484.63
2023-02-02T17:43:54.252Z,102490.56
2023-02-02T17:46:28.514Z,102488.97
2023-02-02T17:49:01.983Z,102495.72
2023-02-02T17:51:41.024Z,102487.81
2023-02-02T17:54:17.301Z,102491.69
2023-02-02T17:56:50.287Z,102488.81
2023-02-02T17:59:22.842Z,102499.75
2023-02-02T18:01:55.779Z,102489.44
2023-02-02T18:04:28.485Z,102494.28
2023-02-02T18:07:02.374Z,102487.19
2023-02-02T18:09:37.054Z,102488.81
2023-02-02T18:12:09.916Z,102494.91
2023-02-02T18:14:46.279Z,102493.63
2023-02-02T18:17:19.138Z,102488.50
2023-02-02T18:19:52.987Z,102480.09
2023-02-02T18:22:31.389Z,102480.41
2023-02-02T18:25:06.130Z,102478.34
2023-02-02T18:27:39.027Z,102478.47
2023-02-02T18:30:13.489Z,102472.88
2023-02-02T18:32:46.291Z,102475.13
2023-02-02T18:35:19.049Z,102485.88
2023-02-02T18:37:52.269Z,102471.38
2023-02-02T18:40:26.491Z,102481.72
2023-02-02T18:42:59.242Z,102477.69
2023-02-02T18:45:32.102Z,102478.47
2023-02-02T18:48:05.107Z,102475.09
2023-02-02T18:50:38.553Z,102464.97
2023-02-02T18:53:11.260Z,102468.97
2023-02-02T18:55:45.496Z,102470.91
2023-02-02T18:58:18.286Z,102477.84
2023-02-02T19:00:52.161Z,102463.16
2023-02-02T19:03:25.014Z,102469.63
2023-02-02T19:06:16.847Z,102467.03
2023-02-02T19:08:49.757Z,102466.75
2023-02-02T19:11:29.545Z,102476.22
2023-02-02T19:14:14.036Z,102483.00
2023-02-02T19:16:49.526Z,102479.94
2023-02-02T19:19:31.130Z,102483.81
2023-02-02T19:22:15.670Z,102486.53
2023-02-02T19:24:49.441Z,102497.66
2023-02-02T19:27:27.542Z,102492.19
2023-02-02T19:30:08.667Z,102502.66
2023-02-02T19:32:45.518Z,102484.91
2023-02-02T19:35:21.811Z,102477.22
2023-02-02T19:38:03.536Z,102470.28
2023-02-02T19:40:43.980Z,102478.16
2023-02-02T19:43:27.434Z,102474.00
2023-02-02T19:46:01.486Z,102480.59
2023-02-02T19:48:36.686Z,102479.31
2023-02-02T19:51:33.653Z,102473.81
2023-02-02T19:54:24.680Z,102479.28
2023-02-02T19:57:01.739Z,102479.28
2023-02-02T19:59:36.572Z,102481.88
2023-02-02T20:02:43.247Z,102485.75
2023-02-02T20:05:20.061Z,102489.44
2023-02-02T20:07:57.647Z,102498.13
2023-02-02T20:10:38.113Z,102494.78
2023-02-02T20:13:15.708Z,102502.66
2023-02-02T20:15:50.802Z,102511.03
2023-02-02T20:18:27.365Z,102503.13
2023-02-02T20:21:00.358Z,102507.66
2023-02-02T20:23:41.713Z,102508.28
2023-02-02T20:26:22.749Z,102512.81
2023-02-02T20:28:57.371Z,102512.47
2023-02-02T20:31:38.839Z,102513.94
2023-02-02T20:34:24.493Z,102521.97
2023-02-02T20:37:01.973Z,102525.03
2023-02-02T20:39:37.450Z,102521.97
2023-02-02T20:42:10.287Z,102537.13
2023-02-02T20:44:44.904Z,102530.03
2023-02-02T20:47:19.712Z,102518.28
2023-02-02T20:49:52.973Z,102526.16
2023-02-02T20:52:26.418Z,102528.09
2023-02-02T20:55:01.781Z,102526.81
2023-02-02T20:57:34.881Z,102530.03
2023-02-02T21:00:10.935Z,102526.16
2023-02-02T21:02:47.616Z,102522.94
2023-02-02T21:05:21.003Z,102530.38
2023-02-02T21:07:58.715Z,102522.63
2023-02-02T21:10:31.991Z,102523.09
2023-02-02T21:13:07.573Z,102515.88
2023-02-02T21:15:40.590Z,102518.75
2023-02-02T21:18:15.066Z,102508.78
2023-02-02T21:20:48.330Z,102519.09
2023-02-02T21:23:21.749Z,102514.09
2023-02-02T21:25:54.830Z,102500.38
2023-02-02T21:28:35.256Z,102516.34
2023-02-02T21:31:08.813Z,102501.84
2023-02-02T21:33:44.100Z,102510.53
2023-02-02T21:36:32.514Z,102517.16
2023-02-02T21:39:25.094Z,102537.78
2023-02-02T21:42:15.172Z,102546.59
2023-02-02T21:44:53.807Z,102542.13
2023-02-02T21:47:30.375Z,102541.78
2023-02-02T21:50:19.966Z,102546.78
2023-02-02T21:52:57.175Z,102535.03
2023-02-02T21:55:38.112Z,102530.66
2023-02-02T21:58:18.886Z,102524.56
2023-02-02T22:00:52.420Z,102525.22
2023-02-02T22:03:33.166Z,102519.75
2023-02-02T22:06:23.950Z,102518.44
2023-02-02T22:09:02.366Z,102510.06
2023-02-02T22:11:47.726Z,102498.94
2023-02-02T22:14:28.014Z,102489.13
2023-02-02T22:17:01.583Z,102478.97
2023-02-02T22:19:36.184Z,102466.75
2023-02-02T22:22:16.852Z,102468.81
2023-02-02T22:24:56.868Z,102479.94
2023-02-02T22:27:41.463Z,102468.00
2023-02-02T22:30:21.251Z,102468.81
2023-02-02T22:32:54.997Z,102476.88
2023-02-02T22:35:27.812Z,102477.84
2023-02-02T22:38:02.490Z,102475.13
2023-02-02T22:40:35.832Z,102486.22
2023-02-02T22:43:08.714Z,102475.94
2023-02-02T22:45:41.466Z,102471.88
2023-02-02T22:48:15.639Z,102482.22
2023-02-02T22:50:48.435Z,102469.78
2023-02-02T22:53:22.483Z,102455.94
2023-02-02T22:55:56.700Z,102426.66
2023-02-02T22:58:29.419Z,102428.56
2023-02-02T23:01:02.034Z,102418.75
2023-02-02T23:03:34.981Z,102410.53
2023-02-02T23:06:07.975Z,102406.03
2023-02-02T23:08:42.022Z,102403.63
2023-02-02T23:11:14.777Z,102416.00
2023-02-02T23:13:47.459Z,102419.88
2023-02-02T23:16:20.269Z,102414.09
2023-02-02T23:18:53.089Z,102424.56
2023-02-02T23:21:26.035Z,102422.94
2023-02-02T23:24:00.062Z,102421.97
2023-02-02T23:26:32.734Z,102421.50
2023-02-02T23:29:05.485Z,102430.03
2023-02-02T23:31:38.239Z,102427.94
2023-02-02T23:34:11.038Z,102438.09
2023-02-02T23:36:43.808Z,102432.59
2023-02-02T23:39:17.859Z,102436.78
2023-02-02T23:41:50.736Z,102437.44
2023-02-02T23:44:23.423Z,102434.03
2023-02-02T23:46:56.404Z,102436.97
2023-02-02T23:49:29.042Z,102442.75
2023-02-02T23:52:01.975Z,102449.50
2023-02-02T23:54:37.224Z,102467.84
2023-02-02T23:57:10.050Z,102461.09
2023-02-02T23:59:42.750Z,102463.34
